Aeroporto :
LOGIN :

Iscrizione | Disclaimer

   EN    FR    IT 

 










Sommario :    VFR   VFR Marginale   IFR   IFR Intensivo   IFR Molto Intensivo
Visibilità : 
Base nubi : 
>= 8 km
>= 3000ft
5 / 8 km
1000 / 3000 ft
1500m / 5 km
500 / 1000 ft
800 / 1500m
200 / 500 ft
< 800m
< 200 ft
Simboli :   Temporali  Nebbia  Neve Forte  Precipitazioni Forti  Vento > 20 kt
SIGMETs :   Varie  Temporali  Ghiacco  Turbolenza  Onda orograficha  Ceneri Vulcaniche






- Altitudine del aeroporto : 124 ft
- Codice IATA : RNS


LFRN - Rennes

ULTIMO METAR :
  • 230200Z AUTO 22010KT 9999 OVC011 17/15 Q1007 TEMPO SHRA BKN008 BKN012TCU

METARs OBSOLETI :
  • 230130Z AUTO 21009KT 9999 SCT010 BKN015 BKN037 17/16 Q1007 TEMPO SHRA BKN008 BKN012TCU
  • 230100Z AUTO 21010KT 9999 SCT012 BKN035 BKN047 17/16 Q1008 TEMPO SHRA BKN012TCU
  • 230030Z AUTO 20008KT 9999 BKN008 BKN013 OVC056 17/16 Q1008 TEMPO SHRA BKN012TCU
  • 230000Z AUTO 19008KT 9999 BKN009 OVC014 17/16 Q1008 TEMPO SHRA BKN012TCU
  • 222330Z AUTO 18007KT 9999 BKN009 BKN023 BKN056 17/16 Q1008 TEMPO SHRA BKN012CB

TAF AMD TAF LFRN
Valido dal 23 a 00 ore il 24 a 00 ore UTC


230057Z 2300/2324 22010KT 9999 SCT030
TEMPO 2300/2318 5000 SHRA BKN008 BKN012TCU
TEMPO 2309/2318 3000 SHRA SCT012CB BKN015TCU
PROB40
TEMPO 2310/2318 23015G25KT 2000 TSRA BKN012CB
ATIS : +33 2 99 67 72 50



MetMap, La meteo Aeronautica in un colpo d'occhio ! - Copyright ORBIFLY Dicembre 2007 - Disclaimer

ORBIFLY MET'MAP TEAM :

Programmazione e sviluppo : Alexandra Zaïnal
Concezione : Baudouin d'Aumeries
Aiuto per la programmazione : Marc-Olivier Méhu
Supporto tecnico e logistico : Manuel Goepfert
Aiuto per la traduzione : Arnaldo La Scala

Contatto : metmap@orbifly.com




FONTI E CREDITI :

   NOAA